Time;durP1;ratioP1;P1;durP2;ratioP2;P2;SDS_P1;SDS_P2;PMS_P1;PMS_P2;Temp;Humidity;BMP_temperature;BMP_pressure;BME280_temperature;BME280_humidity;BME280_pressure;Samples;Min_cycle;Max_cycle;Signal;HPM_P1;HPM_P2
2024/03/15 00:00:17;;;;;;;0.30;0.20;;;;;;;9.07;100.00;99722.34;5052268;28;20490;-48
2024/03/15 00:02:47;;;;;;;0.30;0.20;;;;;;;9.09;100.00;99725.81;5051717;28;20556;-48
2024/03/15 00:05:14;;;;;;;0.30;0.20;;;;;;;9.14;100.00;99726.53;5036314;28;21007;-49
2024/03/15 00:07:41;;;;;;;0.30;0.20;;;;;;;9.11;100.00;99720.47;5051793;28;20936;-48
2024/03/15 00:10:07;;;;;;;0.30;0.20;;;;;;;9.00;100.00;99728.75;5049123;28;20478;-49
2024/03/15 00:12:34;;;;;;;0.30;0.20;;;;;;;9.06;100.00;99725.06;5025819;28;20549;-48
2024/03/15 00:15:00;;;;;;;0.30;0.20;;;;;;;9.00;100.00;99720.78;5052044;28;20447;-48
2024/03/15 00:17:27;;;;;;;0.30;0.20;;;;;;;8.94;100.00;99723.66;5054068;28;20486;-48
2024/03/15 00:19:54;;;;;;;0.30;0.20;;;;;;;9.09;100.00;99723.16;5056033;28;20496;-48
2024/03/15 00:22:23;;;;;;;0.30;0.20;;;;;;;8.99;100.00;99723.50;5055699;28;20481;-48
2024/03/15 00:24:50;;;;;;;0.30;0.20;;;;;;;8.96;100.00;99727.13;5052699;28;20524;-49
2024/03/15 00:27:16;;;;;;;0.30;0.20;;;;;;;9.06;100.00;99720.63;5055915;28;20474;-49
2024/03/15 00:29:43;;;;;;;0.30;0.20;;;;;;;8.99;100.00;99720.84;5055960;28;20469;-49
2024/03/15 00:32:09;;;;;;;0.30;0.20;;;;;;;9.01;100.00;99725.19;5056152;28;20918;-48
2024/03/15 00:34:36;;;;;;;0.30;0.20;;;;;;;9.05;100.00;99715.38;5055550;28;20447;-48
2024/03/15 00:37:02;;;;;;;0.30;0.20;;;;;;;9.12;100.00;99716.91;5056014;28;20468;-48
2024/03/15 00:39:29;;;;;;;0.30;0.20;;;;;;;9.09;100.00;99720.53;5047676;28;20533;-48
2024/03/15 00:41:56;;;;;;;0.30;0.20;;;;;;;9.10;100.00;99719.59;5042612;28;20466;-48
2024/03/15 00:44:23;;;;;;;0.30;0.20;;;;;;;9.08;100.00;99716.13;5049425;28;20463;-48
2024/03/15 00:46:50;;;;;;;0.30;0.20;;;;;;;9.25;100.00;99717.38;5055629;28;20500;-48
2024/03/15 00:49:16;;;;;;;0.30;0.20;;;;;;;9.00;100.00;99711.97;5055270;28;20458;-49
2024/03/15 00:51:43;;;;;;;0.30;0.20;;;;;;;9.14;100.00;99704.44;5042276;28;20984;-48
2024/03/15 00:54:09;;;;;;;1.63;1.63;;;;;;;9.06;100.00;99712.66;5049361;28;20450;-48
2024/03/15 00:56:36;;;;;;;0.30;0.20;;;;;;;9.20;100.00;99710.44;5055467;28;20457;-48
2024/03/15 00:59:02;;;;;;;0.30;0.20;;;;;;;9.07;100.00;99711.75;5046199;28;20447;-48
2024/03/15 01:01:29;;;;;;;0.30;0.20;;;;;;;9.26;100.00;99713.81;5054943;28;20868;-48
2024/03/15 01:03:56;;;;;;;0.30;0.20;;;;;;;9.33;100.00;99707.41;5053850;28;20449;-48
2024/03/15 01:06:23;;;;;;;0.30;0.20;;;;;;;9.34;100.00;99704.69;5055103;28;20525;-48
2024/03/15 01:08:51;;;;;;;0.30;0.20;;;;;;;9.39;100.00;99708.03;5055083;28;20446;-48
2024/03/15 01:11:18;;;;;;;0.30;0.20;;;;;;;9.26;100.00;99709.38;5050229;28;20528;-48
2024/03/15 01:13:44;;;;;;;0.30;0.20;;;;;;;9.41;100.00;99713.28;5055386;28;20477;-48
2024/03/15 01:16:11;;;;;;;0.30;0.20;;;;;;;9.13;100.00;99708.88;5054890;28;20538;-48
2024/03/15 01:18:38;;;;;;;0.30;0.20;;;;;;;9.18;100.00;99708.72;5054680;28;20890;-48
2024/03/15 01:21:05;;;;;;;0.30;0.20;;;;;;;9.33;100.00;99718.00;5054709;28;20987;-48
2024/03/15 01:23:34;;;;;;;0.30;0.20;;;;;;;9.39;100.00;99709.84;5054882;28;20446;-48
2024/03/15 01:26:00;;;;;;;0.30;0.20;;;;;;;9.44;100.00;99710.53;5051775;28;20537;-48
2024/03/15 01:28:30;;;;;;;0.30;0.20;;;;;;;9.45;100.00;99704.31;5054113;28;20454;-48
2024/03/15 01:30:59;;;;;;;0.30;0.20;;;;;;;9.33;100.00;99704.75;5054614;28;20820;-48
2024/03/15 01:33:26;;;;;;;0.30;0.20;;;;;;;9.47;100.00;99710.47;5054714;28;20513;-48
2024/03/15 01:35:52;;;;;;;0.30;0.20;;;;;;;9.39;100.00;99701.88;5054814;28;20489;-48
2024/03/15 01:38:19;;;;;;;0.30;0.20;;;;;;;9.24;100.00;99703.25;5052208;28;20479;-49
2024/03/15 01:40:45;;;;;;;0.30;0.20;;;;;;;9.37;100.00;99701.94;5038321;28;20574;-48
2024/03/15 01:43:14;;;;;;;0.30;0.20;;;;;;;9.37;100.00;99695.75;5041055;28;20486;-48
2024/03/15 01:45:42;;;;;;;0.30;0.20;;;;;;;9.32;100.00;99693.28;5053188;28;20451;-48
2024/03/15 01:48:11;;;;;;;0.30;0.20;;;;;;;9.33;100.00;99679.09;5054494;28;20462;-48
2024/03/15 01:50:39;;;;;;;0.30;0.20;;;;;;;9.31;100.00;99683.53;5050297;28;20443;-48
2024/03/15 01:53:05;;;;;;;0.30;0.20;;;;;;;9.30;100.00;99686.25;5039791;28;20454;-48
2024/03/15 01:55:32;;;;;;;0.30;0.20;;;;;;;9.28;100.00;99680.13;5054309;28;20457;-49
2024/03/15 01:58:00;;;;;;;0.30;0.20;;;;;;;9.31;100.00;99683.53;5034184;28;20455;-49
2024/03/15 02:00:26;;;;;;;0.30;0.20;;;;;;;9.41;100.00;99677.03;5054442;28;20565;-49
2024/03/15 02:02:53;;;;;;;0.30;0.20;;;;;;;9.33;100.00;99675.56;5053881;28;20482;-49
2024/03/15 02:05:20;;;;;;;0.30;0.20;;;;;;;9.42;100.00;99677.88;5054021;28;20823;-48
2024/03/15 02:07:47;;;;;;;0.30;0.20;;;;;;;9.45;100.00;99673.34;5040466;28;20474;-49
2024/03/15 02:10:15;;;;;;;0.30;0.20;;;;;;;9.65;100.00;99680.63;5053992;28;20447;-49
2024/03/15 02:12:42;;;;;;;0.30;0.20;;;;;;;9.67;100.00;99680.56;5027295;28;20520;-49
2024/03/15 02:15:08;;;;;;;0.30;0.20;;;;;;;9.46;100.00;99676.91;5040469;28;20457;-49
2024/03/15 02:17:42;;;;;;;0.30;0.20;;;;;;;9.46;100.00;99680.41;5043789;28;20490;-49
2024/03/15 02:20:11;;;;;;;0.30;0.20;;;;;;;9.50;100.00;99681.16;5053767;28;20443;-48
2024/03/15 02:22:39;;;;;;;0.30;0.20;;;;;;;9.38;100.00;99676.28;5048908;28;20467;-48
2024/03/15 02:25:07;;;;;;;0.30;0.20;;;;;;;9.31;100.00;99677.38;5048730;28;20450;-48
2024/03/15 02:27:34;;;;;;;0.30;0.20;;;;;;;9.24;100.00;99678.50;5053647;28;20482;-49
2024/03/15 02:30:01;;;;;;;0.30;0.20;;;;;;;9.04;100.00;99676.50;5053609;28;20474;-48
2024/03/15 02:32:28;;;;;;;0.30;0.20;;;;;;;9.08;100.00;99680.81;5052200;28;20976;-48
2024/03/15 02:34:54;;;;;;;0.30;0.20;;;;;;;8.96;100.00;99683.84;5053375;28;20928;-49
2024/03/15 02:37:20;;;;;;;0.30;0.20;;;;;;;9.15;100.00;99684.97;5044503;28;20822;-49
2024/03/15 02:39:48;;;;;;;0.30;0.20;;;;;;;9.06;100.00;99688.81;5037662;28;20457;-48
2024/03/15 02:42:15;;;;;;;0.30;0.20;;;;;;;8.90;100.00;99680.44;5042943;28;20491;-49
2024/03/15 02:44:42;;;;;;;0.30;0.20;;;;;;;8.79;100.00;99684.38;5053265;28;20447;-49
2024/03/15 02:47:08;;;;;;;0.30;0.20;;;;;;;8.81;100.00;99685.19;5053334;28;20944;-49
2024/03/15 02:49:36;;;;;;;0.30;0.20;;;;;;;8.77;100.00;99673.84;5053157;28;20454;-48
2024/03/15 02:52:03;;;;;;;0.30;0.20;;;;;;;8.89;100.00;99680.50;5035531;28;20534;-49
2024/03/15 02:54:29;;;;;;;0.30;0.20;;;;;;;8.97;100.00;99694.41;5049862;28;20438;-48
2024/03/15 02:56:56;;;;;;;0.30;0.20;;;;;;;8.76;100.00;99697.69;5052153;28;20446;-49
2024/03/15 02:59:25;;;;;;;0.30;0.20;;;;;;;8.63;100.00;99693.69;5053063;28;20526;-48
2024/03/15 03:01:52;;;;;;;0.30;0.20;;;;;;;8.63;100.00;99688.38;5052979;28;20552;-49
2024/03/15 03:04:18;;;;;;;0.30;0.20;;;;;;;8.59;100.00;99684.97;5052828;28;20454;-48
2024/03/15 03:06:45;;;;;;;0.30;0.20;;;;;;;8.63;100.00;99691.91;5046677;28;20477;-48
2024/03/15 03:09:17;;;;;;;0.30;0.20;;;;;;;8.48;100.00;99693.22;5052897;28;20458;-48
2024/03/15 03:11:43;;;;;;;0.30;0.20;;;;;;;8.61;100.00;99699.03;5030475;28;20543;-48
2024/03/15 03:14:10;;;;;;;0.40;0.20;;;;;;;8.59;100.00;99700.88;5049358;28;21019;-48
2024/03/15 03:16:36;;;;;;;0.30;0.20;;;;;;;8.52;100.00;99705.50;5052965;28;20446;-49
2024/03/15 03:19:04;;;;;;;0.30;0.20;;;;;;;8.67;100.00;99700.66;5046686;28;20882;-48
2024/03/15 03:21:31;;;;;;;0.30;0.20;;;;;;;8.63;100.00;99706.94;5052471;28;20612;-48
2024/03/15 03:23:57;;;;;;;0.30;0.20;;;;;;;8.76;100.00;99703.00;5052768;28;20470;-48
2024/03/15 03:26:24;;;;;;;0.30;0.20;;;;;;;8.51;100.00;99702.91;5046031;28;20468;-48
2024/03/15 03:28:50;;;;;;;0.30;0.20;;;;;;;8.48;100.00;99703.81;5034905;28;20455;-48
2024/03/15 03:31:19;;;;;;;0.30;0.20;;;;;;;8.49;100.00;99702.91;5052640;28;20477;-48
2024/03/15 03:33:46;;;;;;;0.30;0.20;;;;;;;8.48;100.00;99701.19;5052328;28;20458;-48
2024/03/15 03:36:12;;;;;;;0.30;0.20;;;;;;;8.38;100.00;99702.38;5052843;28;20508;-48
2024/03/15 03:38:42;;;;;;;0.30;0.20;;;;;;;8.28;100.00;99706.16;5052195;28;20537;-48
2024/03/15 03:41:08;;;;;;;0.30;0.20;;;;;;;8.18;100.00;99705.56;5030256;28;20492;-48
2024/03/15 03:43:37;;;;;;;0.30;0.20;;;;;;;8.12;100.00;99704.88;5012303;28;20456;-48
2024/03/15 03:46:06;;;;;;;0.30;0.20;;;;;;;8.12;100.00;99704.88;5038401;28;20494;-48
2024/03/15 03:48:33;;;;;;;0.60;0.57;;;;;;;7.93;100.00;99702.72;5026505;28;20457;-48
2024/03/15 03:51:04;;;;;;;0.30;0.20;;;;;;;7.98;100.00;99703.47;5039803;28;20491;-48
2024/03/15 03:53:30;;;;;;;0.30;0.20;;;;;;;7.91;100.00;99704.53;5038910;28;21027;-48
2024/03/15 03:55:57;;;;;;;0.30;0.20;;;;;;;7.92;100.00;99711.56;5046940;28;20490;-48
2024/03/15 03:58:23;;;;;;;0.30;0.20;;;;;;;7.88;100.00;99723.16;5030075;28;20862;-48
2024/03/15 04:00:50;;;;;;;0.30;0.20;;;;;;;7.71;100.00;99720.97;5051753;28;20494;-49
2024/03/15 04:03:17;;;;;;;0.30;0.20;;;;;;;7.49;100.00;99716.25;5052300;28;20453;-48
2024/03/15 04:05:44;;;;;;;0.30;0.20;;;;;;;7.60;100.00;99717.72;5043213;28;20999;-48
2024/03/15 04:08:15;;;;;;;0.30;0.20;;;;;;;7.55;100.00;99734.63;5052277;28;20454;-49
2024/03/15 04:10:42;;;;;;;0.30;0.20;;;;;;;7.45;100.00;99733.97;5046301;28;20535;-48
2024/03/15 04:13:08;;;;;;;0.30;0.20;;;;;;;7.42;100.00;99731.41;5031307;28;20446;-49
2024/03/15 04:15:35;;;;;;;0.30;0.20;;;;;;;7.44;100.00;99721.66;5046453;28;20467;-48
2024/03/15 04:18:02;;;;;;;0.30;0.20;;;;;;;7.61;100.00;99729.16;5039273;28;20989;-48
2024/03/15 04:20:33;;;;;;;0.30;0.20;;;;;;;7.60;100.00;99728.31;5035728;28;20454;-48
2024/03/15 04:22:59;;;;;;;0.30;0.20;;;;;;;7.58;100.00;99727.47;5036005;28;20538;-49
2024/03/15 04:25:26;;;;;;;0.30;0.20;;;;;;;7.42;100.00;99734.06;5033302;28;20521;-49
2024/03/15 04:27:53;;;;;;;0.30;0.20;;;;;;;7.25;100.00;99737.09;5051943;28;20447;-49
2024/03/15 04:30:22;;;;;;;0.30;0.20;;;;;;;7.33;100.00;99735.13;5051925;28;20443;-49
2024/03/15 04:32:55;;;;;;;0.30;0.20;;;;;;;7.32;100.00;99730.75;5052066;28;20552;-49
2024/03/15 04:35:22;;;;;;;0.30;0.20;;;;;;;7.39;100.00;99718.25;5051771;28;20478;-49
2024/03/15 04:37:49;;;;;;;0.30;0.20;;;;;;;7.48;100.00;99740.97;5051861;28;20450;-48
2024/03/15 04:40:16;;;;;;;0.30;0.20;;;;;;;7.23;100.00;99745.97;5039572;28;20450;-49
2024/03/15 04:42:42;;;;;;;0.30;0.20;;;;;;;7.28;100.00;99742.31;5044874;28;20499;-48
2024/03/15 04:45:10;;;;;;;0.30;0.20;;;;;;;7.24;100.00;99745.94;5025812;28;20451;-48
2024/03/15 04:47:38;;;;;;;0.30;0.20;;;;;;;7.26;100.00;99746.75;5051626;28;20451;-48
2024/03/15 04:50:09;;;;;;;0.30;0.10;;;;;;;7.25;100.00;99747.66;5051747;28;20451;-49
2024/03/15 04:52:36;;;;;;;0.30;0.20;;;;;;;7.04;100.00;99743.75;5028081;28;20547;-48
2024/03/15 04:55:04;;;;;;;0.30;0.20;;;;;;;7.09;100.00;99743.66;5051572;28;20447;-49
2024/03/15 04:57:30;;;;;;;0.30;0.20;;;;;;;7.05;100.00;99749.91;5051785;28;20497;-49
2024/03/15 04:59:57;;;;;;;0.30;0.20;;;;;;;6.95;100.00;99754.53;5051921;28;20457;-48
2024/03/15 05:02:28;;;;;;;0.30;0.20;;;;;;;7.02;100.00;99739.44;5051665;28;21004;-48
2024/03/15 05:04:55;;;;;;;0.30;0.20;;;;;;;6.91;100.00;99747.59;5055467;28;20447;-49
2024/03/15 05:07:23;;;;;;;0.30;0.20;;;;;;;6.90;100.00;99748.50;5055134;28;20549;-49
2024/03/15 05:09:49;;;;;;;0.30;0.20;;;;;;;6.96;100.00;99745.69;5055167;28;20458;-49
2024/03/15 05:12:16;;;;;;;0.30;0.20;;;;;;;6.88;100.00;99754.72;5029000;28;20555;-48
2024/03/15 05:14:42;;;;;;;0.30;0.20;;;;;;;6.86;100.00;99751.25;5055238;28;20455;-48
2024/03/15 05:17:08;;;;;;;0.30;0.20;;;;;;;6.78;100.00;99760.19;5054957;28;20461;-48
2024/03/15 05:19:36;;;;;;;0.30;0.20;;;;;;;6.72;100.00;99760.34;5054973;28;20898;-48
2024/03/15 05:22:05;;;;;;;0.30;0.20;;;;;;;6.66;100.00;99756.94;5054642;28;20574;-48
2024/03/15 05:24:32;;;;;;;0.30;0.20;;;;;;;6.80;100.00;99765.44;5055067;28;20458;-49
2024/03/15 05:26:59;;;;;;;0.30;0.20;;;;;;;6.79;100.00;99767.22;5054644;28;20525;-49
2024/03/15 05:29:25;;;;;;;0.30;0.20;;;;;;;6.83;100.00;99768.00;5054885;28;20831;-49
2024/03/15 05:31:52;;;;;;;0.30;0.20;;;;;;;6.93;100.00;99761.63;5054689;28;20849;-49
2024/03/15 05:34:18;;;;;;;0.30;0.20;;;;;;;7.40;100.00;99760.53;5054799;28;20492;-49
2024/03/15 05:36:44;;;;;;;0.30;0.20;;;;;;;7.20;100.00;99767.19;5054510;28;20455;-49
2024/03/15 05:39:11;;;;;;;0.30;0.20;;;;;;;7.20;100.00;99768.06;5051599;28;20458;-49
2024/03/15 05:41:41;;;;;;;0.30;0.20;;;;;;;7.24;100.00;99764.44;5039061;28;20490;-49
2024/03/15 05:44:09;;;;;;;0.30;0.20;;;;;;;7.28;100.00;99766.13;5054569;28;20451;-49
2024/03/15 05:46:36;;;;;;;0.30;0.20;;;;;;;7.21;100.00;99764.50;5054374;28;20455;-48
2024/03/15 05:49:03;;;;;;;0.30;0.20;;;;;;;7.26;100.00;99770.53;5054462;28;20451;-49
2024/03/15 05:51:32;;;;;;;0.30;0.20;;;;;;;7.31;100.00;99766.03;5042643;28;20478;-48
2024/03/15 05:53:58;;;;;;;0.30;0.20;;;;;;;7.40;100.00;99771.13;5047111;28;20554;-49
2024/03/15 05:56:25;;;;;;;0.30;0.20;;;;;;;7.40;100.00;99773.75;5054460;28;20447;-49
2024/03/15 05:58:51;;;;;;;0.30;0.20;;;;;;;7.54;100.00;99768.13;5054186;28;20541;-49
2024/03/15 06:01:18;;;;;;;0.30;0.20;;;;;;;7.52;100.00;99774.34;5053828;28;20495;-49
2024/03/15 06:03:45;;;;;;;0.30;0.20;;;;;;;7.60;100.00;99777.69;5052970;28;20534;-49
2024/03/15 06:06:11;;;;;;;0.30;0.20;;;;;;;7.68;100.00;99773.09;5053841;28;21005;-49
2024/03/15 06:08:38;;;;;;;0.30;0.20;;;;;;;7.80;100.00;99778.03;5053985;28;20935;-48
2024/03/15 06:11:04;;;;;;;0.30;0.20;;;;;;;7.86;100.00;99774.38;5053793;28;20467;-49
2024/03/15 06:13:31;;;;;;;0.30;0.20;;;;;;;8.03;100.00;99785.38;5053774;28;20458;-49
2024/03/15 06:15:57;;;;;;;0.30;0.20;;;;;;;8.18;100.00;99787.63;5053950;28;20457;-49
2024/03/15 06:18:24;;;;;;;0.30;0.20;;;;;;;8.18;100.00;99790.28;5053735;28;20451;-48
2024/03/15 06:20:51;;;;;;;0.30;0.20;;;;;;;8.23;100.00;99785.75;5053548;28;20816;-49
2024/03/15 06:23:20;;;;;;;0.30;0.20;;;;;;;8.33;100.00;99783.69;5053609;28;20531;-49
2024/03/15 06:25:47;;;;;;;0.30;0.20;;;;;;;8.37;100.00;99773.94;5053659;28;20914;-49
2024/03/15 06:28:14;;;;;;;0.30;0.20;;;;;;;8.56;100.00;99773.34;5053587;28;20456;-49
2024/03/15 06:30:45;;;;;;;0.30;0.20;;;;;;;8.68;100.00;99781.88;5053536;28;20466;-48
2024/03/15 06:33:13;;;;;;;0.30;0.20;;;;;;;8.77;100.00;99778.94;5053277;28;20463;-49
2024/03/15 06:35:43;;;;;;;0.30;0.20;;;;;;;8.85;100.00;99776.94;5053858;28;20482;-49
2024/03/15 06:38:30;;;;;;;0.30;0.20;;;;;;;8.92;100.00;99782.94;5053407;28;20450;-48
2024/03/15 06:41:07;;;;;;;0.30;0.20;;;;;;;8.97;100.00;99786.31;5035770;28;20448;-49
2024/03/15 06:43:47;;;;;;;0.30;0.20;;;;;;;9.02;100.00;99773.75;5028982;28;20442;-48
2024/03/15 06:46:23;;;;;;;0.30;0.20;;;;;;;9.24;100.00;99780.16;5053272;28;20442;-48
2024/03/15 06:48:57;;;;;;;0.30;0.20;;;;;;;9.30;100.00;99795.00;5053550;28;20471;-49
2024/03/15 06:54:09;;;;;;;0.30;0.20;;;;;;;9.42;100.00;99797.25;5048067;28;20447;-49
2024/03/15 06:56:37;;;;;;;0.30;0.20;;;;;;;9.35;100.00;99799.25;5053478;28;20446;-49
2024/03/15 06:59:05;;;;;;;0.30;0.20;;;;;;;9.45;100.00;99805.09;5052857;28;20948;-49
2024/03/15 07:01:31;;;;;;;0.30;0.20;;;;;;;9.45;100.00;99800.66;5052865;28;20498;-49
2024/03/15 07:03:58;;;;;;;0.30;0.20;;;;;;;9.63;100.00;99788.63;5052959;28;20447;-49
2024/03/15 07:06:27;;;;;;;0.30;0.20;;;;;;;9.52;100.00;99773.97;5052849;28;20450;-49
2024/03/15 07:08:57;;;;;;;0.30;0.20;;;;;;;9.76;100.00;99786.44;5052724;28;20453;-48
2024/03/15 07:11:28;;;;;;;0.30;0.20;;;;;;;9.80;100.00;99780.09;5035546;28;20476;-49
2024/03/15 07:13:58;;;;;;;0.30;0.20;;;;;;;9.82;100.00;99788.00;5046187;28;20474;-49
2024/03/15 07:16:26;;;;;;;0.30;0.20;;;;;;;10.03;100.00;99796.13;5052717;28;20975;-48
2024/03/15 07:18:54;;;;;;;0.30;0.20;;;;;;;10.14;100.00;99795.72;5052578;28;20446;-49
2024/03/15 07:21:22;;;;;;;0.30;0.20;;;;;;;10.26;100.00;99797.13;5052732;28;20470;-49
2024/03/15 07:23:49;;;;;;;0.30;0.20;;;;;;;10.30;100.00;99804.09;5052567;28;20450;-48
2024/03/15 07:26:17;;;;;;;0.30;0.20;;;;;;;10.44;100.00;99807.13;5052400;28;20447;-49
2024/03/15 07:28:44;;;;;;;0.30;0.20;;;;;;;10.55;100.00;99799.63;5052342;28;20534;-49
2024/03/15 07:31:11;;;;;;;0.30;0.20;;;;;;;10.88;100.00;99810.78;5052447;28;20474;-49
2024/03/15 07:33:38;;;;;;;0.30;0.20;;;;;;;11.24;100.00;99812.97;5052315;28;20950;-48
2024/03/15 07:36:07;;;;;;;0.30;0.20;;;;;;;11.54;100.00;99803.78;5052699;28;20453;-49
2024/03/15 07:38:35;;;;;;;0.30;0.20;;;;;;;11.84;100.00;99806.13;5052547;28;20457;-50
2024/03/15 07:41:02;;;;;;;0.30;0.20;;;;;;;12.06;100.00;99812.31;5035710;28;20496;-49
2024/03/15 07:43:28;;;;;;;0.30;0.20;;;;;;;12.29;100.00;99818.44;5051588;28;20573;-49
2024/03/15 07:45:55;;;;;;;0.30;0.20;;;;;;;12.39;100.00;99812.66;5052225;28;20541;-49
2024/03/15 07:48:22;;;;;;;0.30;0.20;;;;;;;12.53;100.00;99812.03;5051920;28;20963;-49
2024/03/15 07:50:48;;;;;;;0.30;0.30;;;;;;;12.59;100.00;99811.75;5046601;28;20459;-49
2024/03/15 07:53:15;;;;;;;0.30;0.20;;;;;;;12.66;100.00;99809.69;5038912;28;20501;-49
2024/03/15 07:55:42;;;;;;;0.30;0.20;;;;;;;12.73;100.00;99813.81;5052106;28;20836;-49
2024/03/15 07:58:08;;;;;;;0.30;0.20;;;;;;;12.89;100.00;99816.66;5025474;28;20455;-49
2024/03/15 08:00:36;;;;;;;0.30;0.20;;;;;;;13.02;100.00;99815.16;5051989;28;20860;-49
2024/03/15 08:03:03;;;;;;;0.30;0.20;;;;;;;13.08;100.00;99817.53;5026071;28;20589;-49
2024/03/15 08:05:29;;;;;;;0.30;0.20;;;;;;;13.23;100.00;99819.53;5051876;28;20450;-49
2024/03/15 08:07:57;;;;;;;0.30;0.20;;;;;;;13.48;100.00;99818.38;5051988;28;20450;-49
2024/03/15 08:10:24;;;;;;;0.30;0.20;;;;;;;13.40;99.38;99820.53;5050962;28;20451;-49
2024/03/15 08:12:50;;;;;;;0.30;0.20;;;;;;;13.43;99.27;99820.38;5027203;28;20837;-49
2024/03/15 08:15:17;;;;;;;0.30;0.20;;;;;;;13.57;98.83;99823.28;5051742;28;20815;-49
2024/03/15 08:17:48;;;;;;;0.30;0.20;;;;;;;13.74;98.13;99817.97;5052096;28;20457;-49
2024/03/15 08:20:16;;;;;;;0.30;0.30;;;;;;;13.94;97.20;99827.66;5052054;28;20453;-49
2024/03/15 08:22:42;;;;;;;0.30;0.20;;;;;;;13.72;96.45;99827.88;5051761;28;20887;-49
2024/03/15 08:25:09;;;;;;;0.30;0.20;;;;;;;13.58;96.96;99827.69;5051839;28;20457;-49
2024/03/15 08:27:37;;;;;;;0.30;0.20;;;;;;;13.58;97.12;99827.69;5051866;28;20503;-49
2024/03/15 08:30:04;;;;;;;0.30;0.20;;;;;;;13.80;96.60;99843.50;5051873;28;20489;-49
2024/03/15 08:32:32;;;;;;;0.30;0.20;;;;;;;13.70;96.59;99835.06;5051914;28;20466;-49
2024/03/15 08:34:58;;;;;;;0.30;0.20;;;;;;;13.66;96.38;99838.84;5051545;28;20457;-49
2024/03/15 08:37:26;;;;;;;0.30;0.20;;;;;;;13.74;96.26;99847.34;5052262;28;20450;-49
2024/03/15 08:39:53;;;;;;;0.30;0.20;;;;;;;13.61;96.49;99839.06;5046739;28;20535;-49
2024/03/15 08:42:20;;;;;;;1.03;1.03;;;;;;;13.62;96.16;99842.59;5045733;28;20494;-49
2024/03/15 08:44:47;;;;;;;0.30;0.20;;;;;;;13.58;96.78;99841.03;5055557;28;20450;-50
2024/03/15 08:47:13;;;;;;;0.30;0.20;;;;;;;13.48;96.85;99845.94;5055689;28;20541;-49
2024/03/15 08:49:39;;;;;;;0.30;0.20;;;;;;;13.55;97.62;99849.16;5055455;28;20503;-49
2024/03/15 08:52:06;;;;;;;0.30;0.20;;;;;;;13.38;97.75;99846.44;5037798;28;21002;-49
2024/03/15 08:54:33;;;;;;;0.30;0.20;;;;;;;13.37;98.13;99855.38;5052516;28;20541;-49
2024/03/15 08:57:05;;;;;;;0.30;0.20;;;;;;;13.27;97.97;99854.94;5055631;28;20450;-49
2024/03/15 08:59:33;;;;;;;0.30;0.20;;;;;;;13.35;98.35;99850.13;5055328;28;20540;-49
2024/03/15 09:02:00;;;;;;;0.30;0.20;;;;;;;13.38;98.59;99852.63;5055164;28;20482;-49
2024/03/15 09:04:27;;;;;;;0.30;0.20;;;;;;;13.30;98.99;99862.81;5055225;28;20519;-49
2024/03/15 09:06:54;;;;;;;0.47;0.47;;;;;;;13.18;99.43;99853.59;5055223;28;21009;-49
2024/03/15 09:09:21;;;;;;;0.30;0.20;;;;;;;13.29;99.84;99848.63;5055040;28;20537;-49
2024/03/15 09:11:49;;;;;;;0.30;0.20;;;;;;;13.11;100.00;99857.41;5054242;28;20987;-49
2024/03/15 09:14:18;;;;;;;0.30;0.20;;;;;;;13.28;100.00;99857.53;5054777;28;20491;-49
2024/03/15 09:16:46;;;;;;;0.30;0.20;;;;;;;13.34;100.00;99859.94;5055171;28;20450;-49
2024/03/15 09:19:14;;;;;;;0.30;0.20;;;;;;;13.28;100.00;99856.66;5054759;28;20923;-49
2024/03/15 09:21:40;;;;;;;0.30;0.20;;;;;;;13.50;100.00;99859.22;5054852;28;20562;-49
2024/03/15 09:24:08;;;;;;;0.30;0.20;;;;;;;13.51;100.00;99855.59;5054798;28;20494;-49
2024/03/15 09:26:35;;;;;;;0.30;0.20;;;;;;;13.50;100.00;99857.41;5055058;28;21019;-49
2024/03/15 09:29:01;;;;;;;0.30;0.20;;;;;;;13.48;100.00;99858.41;5054639;28;20959;-49
2024/03/15 09:31:32;;;;;;;0.30;0.20;;;;;;;13.44;100.00;99851.50;5054725;28;20479;-49
2024/03/15 09:34:19;;;;;;;0.30;0.20;;;;;;;13.59;100.00;99856.09;5015492;28;20575;-49
2024/03/15 09:36:47;;;;;;;0.30;0.20;;;;;;;13.57;100.00;99863.34;5047837;28;20459;-49
2024/03/15 09:39:14;;;;;;;0.30;0.20;;;;;;;13.58;100.00;99863.25;5051236;28;21003;-49
2024/03/15 09:41:42;;;;;;;0.30;0.20;;;;;;;13.75;100.00;99858.91;5039668;28;20459;-50
2024/03/15 09:44:14;;;;;;;0.30;0.20;;;;;;;13.73;100.00;99858.13;5054638;28;20569;-49
2024/03/15 09:46:41;;;;;;;0.30;0.20;;;;;;;13.50;100.00;99856.53;5054308;28;20450;-49
2024/03/15 09:49:12;;;;;;;0.30;0.20;;;;;;;13.45;100.00;99861.25;5054020;28;20446;-50
2024/03/15 09:51:40;;;;;;;0.30;0.20;;;;;;;13.47;100.00;99862.03;5041764;28;20890;-49
2024/03/15 09:54:08;;;;;;;0.30;0.20;;;;;;;13.51;100.00;99860.94;5048121;28;20505;-50
2024/03/15 09:56:37;;;;;;;0.30;0.20;;;;;;;13.44;100.00;99863.03;5054557;28;20832;-49
2024/03/15 09:59:12;;;;;;;0.30;0.20;;;;;;;13.39;100.00;99865.03;5054215;28;20486;-49
2024/03/15 10:01:38;;;;;;;0.30;0.20;;;;;;;13.53;100.00;99865.25;5054124;28;20512;-50
2024/03/15 10:04:08;;;;;;;0.30;0.20;;;;;;;13.59;100.00;99856.97;5054018;28;20494;-50
2024/03/15 10:06:35;;;;;;;0.30;0.20;;;;;;;13.60;100.00;99856.03;5054131;28;20937;-50
2024/03/15 10:09:05;;;;;;;0.30;0.20;;;;;;;13.61;100.00;99862.25;5053961;28;20550;-50
2024/03/15 10:11:31;;;;;;;0.30;0.20;;;;;;;13.70;100.00;99856.44;5034544;28;20496;-48
2024/03/15 10:13:59;;;;;;;0.30;0.20;;;;;;;13.93;100.00;99861.53;5048213;28;20948;-48
2024/03/15 10:16:28;;;;;;;0.30;0.20;;;;;;;14.04;100.00;99857.47;5054167;28;20457;-48
2024/03/15 10:18:54;;;;;;;0.30;0.20;;;;;;;14.01;100.00;99860.31;5053596;28;20950;-50
2024/03/15 10:21:21;;;;;;;0.30;0.20;;;;;;;14.12;100.00;99857.97;5053771;28;20471;-48
2024/03/15 10:23:48;;;;;;;0.30;0.20;;;;;;;14.04;100.00;99855.66;5053625;28;20580;-48
2024/03/15 10:26:25;;;;;;;0.30;0.20;;;;;;;14.19;100.00;99862.03;5053652;28;20451;-48
2024/03/15 10:28:51;;;;;;;0.30;0.20;;;;;;;14.54;100.00;99862.09;5053676;28;20537;-48
2024/03/15 10:31:17;;;;;;;0.30;0.20;;;;;;;14.31;100.00;99863.25;5053743;28;20477;-48
2024/03/15 10:33:44;;;;;;;0.30;0.20;;;;;;;14.22;100.00;99857.41;5053607;28;20447;-47
2024/03/15 10:36:11;;;;;;;0.30;0.20;;;;;;;14.15;100.00;99857.81;5053573;28;20948;-48
2024/03/15 10:38:39;;;;;;;0.30;0.20;;;;;;;14.39;100.00;99869.94;5053181;28;20457;-48
2024/03/15 10:41:06;;;;;;;0.30;0.20;;;;;;;14.33;100.00;99874.72;5034767;28;20497;-48
2024/03/15 10:43:33;;;;;;;0.30;0.20;;;;;;;14.50;100.00;99875.59;5026882;28;20518;-48
2024/03/15 10:46:00;;;;;;;0.30;0.20;;;;;;;14.68;100.00;99870.28;5053628;28;20475;-48
2024/03/15 10:48:29;;;;;;;0.30;0.20;;;;;;;14.57;100.00;99872.63;5026784;28;20542;-48
2024/03/15 10:50:57;;;;;;;0.30;0.20;;;;;;;14.75;100.00;99867.19;5046531;28;20477;-48
2024/03/15 10:53:24;;;;;;;0.30;0.20;;;;;;;14.59;100.00;99868.06;5040349;28;20450;-48
2024/03/15 10:55:54;;;;;;;0.30;0.20;;;;;;;14.67;100.00;99861.38;5053446;28;20537;-48
2024/03/15 10:58:22;;;;;;;0.30;0.20;;;;;;;14.69;100.00;99870.19;5053453;28;20530;-48
2024/03/15 11:00:49;;;;;;;0.30;0.20;;;;;;;14.80;100.00;99862.47;5052037;28;20447;-49
2024/03/15 11:03:30;;;;;;;0.30;0.20;;;;;;;14.80;100.00;99869.59;5054246;28;20724;-49
2024/03/15 11:06:01;;;;;;;0.30;0.20;;;;;;;14.77;100.00;99878.66;5053839;28;20443;-48
2024/03/15 11:08:34;;;;;;;0.30;0.20;;;;;;;14.81;100.00;99874.91;5053622;28;20976;-49
2024/03/15 11:11:02;;;;;;;0.30;0.20;;;;;;;14.72;100.00;99872.69;5044836;28;20588;-49
2024/03/15 11:13:39;;;;;;;0.30;0.20;;;;;;;14.70;100.00;99882.63;5038845;28;20516;-49
2024/03/15 11:16:24;;;;;;;0.30;0.20;;;;;;;14.66;100.00;99880.16;5028258;28;20504;-48
2024/03/15 11:18:51;;;;;;;0.30;0.20;;;;;;;14.81;100.00;99880.25;5052659;28;20504;-48
2024/03/15 11:21:19;;;;;;;0.30;0.20;;;;;;;14.75;100.00;99879.69;5052740;28;20460;-48
2024/03/15 11:23:47;;;;;;;0.30;0.20;;;;;;;14.90;100.00;99883.38;5052789;28;20486;-49
2024/03/15 11:26:20;;;;;;;0.30;0.20;;;;;;;14.99;100.00;99881.09;5052780;28;20447;-49
2024/03/15 11:28:53;;;;;;;0.30;0.20;;;;;;;15.11;100.00;99890.28;5052502;28;20508;-49
2024/03/15 11:31:29;;;;;;;0.30;0.20;;;;;;;14.96;100.00;99886.59;5052579;28;20479;-49
2024/03/15 11:33:58;;;;;;;0.30;0.20;;;;;;;14.88;100.00;99890.63;5052509;28;20422;-49
2024/03/15 11:36:27;;;;;;;0.30;0.20;;;;;;;15.00;100.00;99893.53;5052246;28;20755;-49